createdAt,value
2023-03-06T00:00:50.701Z,5.60
2023-03-06T00:01:50.715Z,5.90
2023-03-06T00:02:52.153Z,6.30
2023-03-06T00:03:50.758Z,6.70
2023-03-06T00:04:50.670Z,6.50
2023-03-06T00:05:50.701Z,6.60
2023-03-06T00:06:50.643Z,6.00
2023-03-06T00:07:50.645Z,6.60
2023-03-06T00:08:50.606Z,5.50
2023-03-06T00:09:50.602Z,5.80
2023-03-06T00:10:50.601Z,6.40
2023-03-06T00:11:50.585Z,6.50
2023-03-06T00:12:50.562Z,6.40
2023-03-06T00:13:50.568Z,6.00
2023-03-06T00:14:50.552Z,6.60
2023-03-06T00:15:50.618Z,6.20
2023-03-06T00:16:50.504Z,5.40
2023-03-06T00:17:50.517Z,6.30
2023-03-06T00:18:50.545Z,6.10
2023-03-06T00:19:50.471Z,6.10
2023-03-06T00:20:50.472Z,6.00
2023-03-06T00:21:50.500Z,6.00
2023-03-06T00:22:50.445Z,5.60
2023-03-06T00:23:50.422Z,5.50
2023-03-06T00:24:50.456Z,5.90
2023-03-06T00:25:50.417Z,5.80
2023-03-06T00:26:50.396Z,6.10
2023-03-06T00:27:50.408Z,6.10
2023-03-06T00:28:50.380Z,6.30
2023-03-06T00:29:50.364Z,6.20
2023-03-06T00:30:50.415Z,7.10
2023-03-06T00:31:50.424Z,7.50
2023-03-06T00:32:50.314Z,6.40
2023-03-06T00:33:50.321Z,6.60
2023-03-06T00:34:50.294Z,6.30
2023-03-06T00:35:50.383Z,6.00
2023-03-06T00:36:50.302Z,5.80
2023-03-06T00:37:50.283Z,5.80
2023-03-06T00:38:50.264Z,6.30
2023-03-06T00:39:50.247Z,5.60
2023-03-06T00:40:50.262Z,6.20
2023-03-06T00:41:50.274Z,6.00
2023-03-06T00:42:50.207Z,5.90
2023-03-06T00:43:50.192Z,5.20
2023-03-06T00:44:50.188Z,5.90
2023-03-06T00:45:50.196Z,6.30
2023-03-06T00:46:50.154Z,6.60
2023-03-06T00:47:50.189Z,6.90
2023-03-06T00:48:50.144Z,5.10
2023-03-06T00:49:50.131Z,6.60
2023-03-06T00:50:50.144Z,6.60
2023-03-06T00:51:50.113Z,5.70
2023-03-06T00:52:50.142Z,6.40
2023-03-06T00:53:50.135Z,6.90
2023-03-06T00:54:50.063Z,6.10
2023-03-06T00:55:50.076Z,6.20
2023-03-06T00:56:50.078Z,5.90
2023-03-06T00:57:50.034Z,6.00
2023-03-06T00:58:50.046Z,5.80
2023-03-06T00:59:50.026Z,6.00
2023-03-06T01:00:50.038Z,5.50
2023-03-06T01:01:50.000Z,5.60
2023-03-06T01:02:50.010Z,5.80
2023-03-06T01:03:49.962Z,5.50
2023-03-06T01:04:50.007Z,5.50
2023-03-06T01:05:49.939Z,4.90
2023-03-06T01:06:49.939Z,5.50
2023-03-06T01:07:49.911Z,4.90
2023-03-06T01:08:49.903Z,5.00
2023-03-06T01:09:49.884Z,4.50
2023-03-06T01:10:49.921Z,4.90
2023-03-06T01:11:49.875Z,4.60
2023-03-06T01:12:49.867Z,4.40
2023-03-06T01:13:49.847Z,5.50
2023-03-06T01:14:49.838Z,4.60
2023-03-06T01:15:49.839Z,4.10
2023-03-06T01:16:49.872Z,4.40
2023-03-06T01:17:49.794Z,4.70
2023-03-06T01:18:49.795Z,4.10
2023-03-06T01:19:49.772Z,4.50
2023-03-06T01:20:49.788Z,4.40
2023-03-06T01:21:49.748Z,4.80
2023-03-06T01:22:49.766Z,4.20
2023-03-06T01:23:49.741Z,4.30
2023-03-06T01:24:49.723Z,4.30
2023-03-06T01:25:49.701Z,4.20
2023-03-06T01:26:49.693Z,4.00
2023-03-06T01:27:49.710Z,4.30
2023-03-06T01:28:49.699Z,4.10
2023-03-06T01:29:49.657Z,4.20
2023-03-06T01:30:49.654Z,4.30
2023-03-06T01:31:49.665Z,4.40
2023-03-06T01:32:49.623Z,4.60
2023-03-06T01:33:49.693Z,3.60
2023-03-06T01:34:49.596Z,4.10
2023-03-06T01:35:49.631Z,3.90
2023-03-06T01:36:49.614Z,4.40
2023-03-06T01:37:49.561Z,4.10
2023-03-06T01:38:49.561Z,4.10
2023-03-06T01:39:49.588Z,4.40
2023-03-06T01:40:49.531Z,3.70
2023-03-06T01:41:49.541Z,4.20
2023-03-06T01:42:49.519Z,4.10
2023-03-06T01:43:49.521Z,3.90
2023-03-06T01:44:49.488Z,4.50
2023-03-06T01:45:49.581Z,4.30
2023-03-06T01:46:49.507Z,4.10
2023-03-06T01:47:49.441Z,4.70
2023-03-06T01:48:49.447Z,4.20
2023-03-06T01:49:49.452Z,4.00
2023-03-06T01:50:49.407Z,4.20
2023-03-06T01:51:49.447Z,4.40
2023-03-06T01:52:49.398Z,4.50
2023-03-06T01:53:49.409Z,3.80
2023-03-06T01:54:49.384Z,4.40
2023-03-06T01:55:49.358Z,4.40
2023-03-06T01:56:49.379Z,4.30
2023-03-06T01:57:49.370Z,4.50
2023-03-06T01:58:49.331Z,4.30
2023-03-06T01:59:49.322Z,4.40
2023-03-06T02:00:49.387Z,4.90
2023-03-06T02:01:49.294Z,5.10
2023-03-06T02:02:49.294Z,4.30
2023-03-06T02:03:49.269Z,4.70
2023-03-06T02:04:49.250Z,4.70
2023-03-06T02:05:49.247Z,5.10
2023-03-06T02:06:49.261Z,4.90
2023-03-06T02:07:49.253Z,4.80
2023-03-06T02:08:49.206Z,5.20
2023-03-06T02:09:49.201Z,5.40
2023-03-06T02:10:49.185Z,5.00
2023-03-06T02:11:49.324Z,5.50
2023-03-06T02:12:49.177Z,5.50
2023-03-06T02:13:49.169Z,5.90
2023-03-06T02:14:49.176Z,5.00
2023-03-06T02:15:49.124Z,5.10
2023-03-06T02:16:49.199Z,5.00
2023-03-06T02:17:49.128Z,5.00
2023-03-06T02:18:49.138Z,5.10
2023-03-06T02:19:49.127Z,5.30
2023-03-06T02:20:49.104Z,5.50
2023-03-06T02:21:49.076Z,5.10
2023-03-06T02:22:49.080Z,5.10
2023-03-06T02:23:49.049Z,5.10
2023-03-06T02:24:49.070Z,4.90
2023-03-06T02:25:49.012Z,5.30
2023-03-06T02:26:49.048Z,4.80
2023-03-06T02:27:49.000Z,4.70
2023-03-06T02:28:48.987Z,5.40
2023-03-06T02:29:48.990Z,5.70
2023-03-06T02:30:49.044Z,5.00
2023-03-06T02:31:48.950Z,5.00
2023-03-06T02:32:48.976Z,5.70
2023-03-06T02:33:48.931Z,5.30
2023-03-06T02:34:48.936Z,5.30
2023-03-06T02:35:48.937Z,6.00
2023-03-06T02:36:48.940Z,5.80
2023-03-06T02:37:48.888Z,5.80
2023-03-06T02:38:48.890Z,5.90
2023-03-06T02:39:48.882Z,5.30
2023-03-06T02:40:48.895Z,5.90
2023-03-06T02:41:48.885Z,6.10
2023-03-06T02:42:48.827Z,5.80
2023-03-06T02:43:48.814Z,5.90
2023-03-06T02:44:48.825Z,5.80
2023-03-06T02:45:48.860Z,5.70
2023-03-06T02:46:48.779Z,6.50
2023-03-06T02:47:48.811Z,5.90
2023-03-06T02:48:48.771Z,5.50
2023-03-06T02:49:48.741Z,6.10
2023-03-06T02:50:48.756Z,5.60
2023-03-06T02:51:48.716Z,6.40
2023-03-06T02:52:48.725Z,6.20
2023-03-06T02:53:48.683Z,6.20
2023-03-06T02:54:48.696Z,6.10
2023-03-06T02:55:48.689Z,6.30
2023-03-06T02:56:48.652Z,6.20
2023-03-06T02:57:48.676Z,6.70
2023-03-06T02:58:48.653Z,6.00
2023-03-06T02:59:48.640Z,6.50
2023-03-06T03:00:48.612Z,6.20
2023-03-06T03:01:48.710Z,6.10
2023-03-06T03:02:48.586Z,6.20
2023-03-06T03:03:48.645Z,6.40
2023-03-06T03:04:48.620Z,6.60
2023-03-06T03:05:48.586Z,6.80
2023-03-06T03:06:48.561Z,7.20
2023-03-06T03:07:48.557Z,6.30
2023-03-06T03:08:48.525Z,6.70
2023-03-06T03:09:48.566Z,6.60
2023-03-06T03:10:48.504Z,6.80
2023-03-06T03:11:48.498Z,7.20
2023-03-06T03:12:48.466Z,6.40
2023-03-06T03:13:48.480Z,6.70
2023-03-06T03:14:48.447Z,6.90
2023-03-06T03:15:48.541Z,7.00
2023-03-06T03:16:48.442Z,7.10
2023-03-06T03:17:48.433Z,6.80
2023-03-06T03:18:48.414Z,6.80
2023-03-06T03:19:48.394Z,6.70
2023-03-06T03:20:48.404Z,6.50
2023-03-06T03:21:48.421Z,6.90
2023-03-06T03:22:48.360Z,7.00
2023-03-06T03:23:48.357Z,7.00
2023-03-06T03:24:48.419Z,6.30
2023-03-06T03:25:48.334Z,6.80
2023-03-06T03:26:48.381Z,6.20
2023-03-06T03:27:48.326Z,6.80
2023-03-06T03:28:48.290Z,6.70
2023-03-06T03:29:48.280Z,7.20
2023-03-06T03:30:48.317Z,6.70
2023-03-06T03:31:48.290Z,6.90
2023-03-06T03:32:48.272Z,6.20
2023-03-06T03:33:48.231Z,6.60
2023-03-06T03:34:48.241Z,6.70
2023-03-06T03:35:48.233Z,6.20
2023-03-06T03:36:48.204Z,6.50
2023-03-06T03:37:48.183Z,6.70
2023-03-06T03:38:48.207Z,5.70
2023-03-06T03:39:48.172Z,6.40
2023-03-06T03:40:48.183Z,6.10
2023-03-06T03:41:48.147Z,6.40
2023-03-06T03:42:48.133Z,6.60
2023-03-06T03:43:48.149Z,7.10
2023-03-06T03:44:48.105Z,6.60
2023-03-06T03:45:48.109Z,6.20
2023-03-06T03:46:48.124Z,6.20
2023-03-06T03:47:48.112Z,6.30
2023-03-06T03:48:48.083Z,6.20
2023-03-06T03:49:48.111Z,6.60
2023-03-06T03:50:48.059Z,6.30
2023-03-06T03:51:48.041Z,6.10
2023-03-06T03:52:48.023Z,6.70
2023-03-06T03:53:48.011Z,5.60
2023-03-06T03:54:48.002Z,5.90
2023-03-06T03:55:48.025Z,6.50
2023-03-06T03:56:47.982Z,6.20
2023-03-06T03:57:47.961Z,6.20
2023-03-06T03:58:47.979Z,5.80
2023-03-06T03:59:47.943Z,5.80
2023-03-06T04:00:47.941Z,5.80
2023-03-06T04:01:47.967Z,5.90
2023-03-06T04:02:47.909Z,5.90
2023-03-06T04:03:47.923Z,6.40
2023-03-06T04:04:47.954Z,6.00
2023-03-06T04:05:47.876Z,5.90
2023-03-06T04:06:47.862Z,6.20
2023-03-06T04:07:47.901Z,6.40
2023-03-06T04:08:47.846Z,5.70
2023-03-06T04:09:47.831Z,5.40
2023-03-06T04:10:47.833Z,5.90
2023-03-06T04:11:47.806Z,5.60
2023-03-06T04:12:47.807Z,5.60
2023-03-06T04:13:47.807Z,5.10
2023-03-06T04:14:47.768Z,5.30
2023-03-06T04:15:47.754Z,6.00
2023-03-06T04:16:47.754Z,5.40
2023-03-06T04:17:47.773Z,6.10
2023-03-06T04:18:47.753Z,5.40
2023-03-06T04:19:47.729Z,6.10
2023-03-06T04:20:47.709Z,5.50
2023-03-06T04:21:47.692Z,5.80
2023-03-06T04:22:47.698Z,5.60
2023-03-06T04:23:47.659Z,5.10
2023-03-06T04:24:47.682Z,5.70
2023-03-06T04:25:47.658Z,5.70
2023-03-06T04:26:47.655Z,4.70
2023-03-06T04:27:47.631Z,5.80
2023-03-06T04:28:47.626Z,6.30
2023-03-06T04:29:47.653Z,5.50
2023-03-06T04:30:47.612Z,5.80
2023-03-06T04:31:47.646Z,5.30
2023-03-06T04:32:47.569Z,4.90
2023-03-06T04:33:47.566Z,4.80
2023-03-06T04:34:47.566Z,4.80
2023-03-06T04:35:47.655Z,4.60
2023-03-06T04:36:47.571Z,5.00
2023-03-06T04:37:47.513Z,5.00
2023-03-06T04:38:47.561Z,4.50
2023-03-06T04:39:47.520Z,4.60
2023-03-06T04:40:47.477Z,4.90
2023-03-06T04:41:47.508Z,4.90
2023-03-06T04:42:47.470Z,4.40
2023-03-06T04:43:47.460Z,4.60
2023-03-06T04:44:47.449Z,4.80
2023-03-06T04:45:47.487Z,5.20
2023-03-06T04:46:47.429Z,4.50
2023-03-06T04:47:47.417Z,4.50
2023-03-06T04:48:47.405Z,5.00
2023-03-06T04:49:47.387Z,4.60
2023-03-06T04:50:47.405Z,4.40
2023-03-06T04:51:47.378Z,4.70
2023-03-06T04:52:47.392Z,5.00
2023-03-06T04:53:47.337Z,4.20
2023-03-06T04:54:47.309Z,5.30
2023-03-06T04:55:47.318Z,5.50
2023-03-06T04:56:47.334Z,4.50
2023-03-06T04:57:47.300Z,4.70
2023-03-06T04:58:47.299Z,4.70
2023-03-06T04:59:47.268Z,4.60
2023-03-06T05:00:47.294Z,4.90
2023-03-06T05:01:47.291Z,5.10
2023-03-06T05:02:47.234Z,4.80
2023-03-06T05:03:47.281Z,4.40
2023-03-06T05:04:47.222Z,4.80
2023-03-06T05:05:47.197Z,4.90
2023-03-06T05:06:47.181Z,4.70
2023-03-06T05:07:47.187Z,4.50
2023-03-06T05:08:47.156Z,4.50
2023-03-06T05:09:47.224Z,5.20
2023-03-06T05:10:47.164Z,4.90
2023-03-06T05:11:47.129Z,5.00
2023-03-06T05:12:47.111Z,5.20
2023-03-06T05:13:47.139Z,5.20
2023-03-06T05:14:48.091Z,4.80
2023-03-06T05:15:47.126Z,4.80
2023-03-06T05:16:47.118Z,4.90
2023-03-06T05:17:47.098Z,4.70
2023-03-06T05:18:48.908Z,5.00
2023-03-06T05:19:47.061Z,5.00
2023-03-06T05:20:47.045Z,5.00
2023-03-06T05:21:47.019Z,4.40
2023-03-06T05:22:46.986Z,5.30
2023-03-06T05:23:47.014Z,5.00
2023-03-06T05:24:46.982Z,4.70
2023-03-06T05:25:46.971Z,5.00
2023-03-06T05:26:47.003Z,5.20
2023-03-06T05:27:46.942Z,5.00
2023-03-06T05:28:46.947Z,5.30
2023-03-06T05:29:46.940Z,4.80
2023-03-06T05:30:46.915Z,5.30
2023-03-06T05:31:46.918Z,5.40
2023-03-06T05:32:46.963Z,5.20
2023-03-06T05:33:46.896Z,4.50
2023-03-06T05:34:46.862Z,5.20
2023-03-06T05:35:46.880Z,5.50
2023-03-06T05:36:46.829Z,4.80
2023-03-06T05:37:46.831Z,5.70
2023-03-06T05:38:46.856Z,4.70
2023-03-06T05:39:46.813Z,5.10
2023-03-06T05:40:46.826Z,5.20
2023-03-06T05:41:46.790Z,5.70
2023-03-06T05:42:46.784Z,5.50
2023-03-06T05:43:46.829Z,5.50
2023-03-06T05:44:46.785Z,5.20
2023-03-06T05:45:46.785Z,5.30
2023-03-06T05:46:46.734Z,5.40
2023-03-06T05:47:46.777Z,5.00
2023-03-06T05:48:47.089Z,5.50
2023-03-06T05:49:46.722Z,5.20
2023-03-06T05:50:46.701Z,5.50
2023-03-06T05:51:46.714Z,5.20
2023-03-06T05:52:46.684Z,5.10
2023-03-06T05:53:46.646Z,5.40
2023-03-06T05:54:46.656Z,5.40
2023-03-06T05:55:46.679Z,4.90
2023-03-06T05:56:46.615Z,5.20
2023-03-06T05:57:46.676Z,6.00
2023-03-06T05:58:46.597Z,5.50
2023-03-06T05:59:46.584Z,6.50
2023-03-06T06:00:46.619Z,6.00
2023-03-06T06:01:46.568Z,5.20
2023-03-06T06:02:46.557Z,5.60
2023-03-06T06:03:46.615Z,5.90
2023-03-06T06:04:46.545Z,5.10
2023-03-06T06:05:46.519Z,5.50
2023-03-06T06:06:46.554Z,5.70
2023-03-06T06:07:46.509Z,5.50
2023-03-06T06:08:46.513Z,5.70
2023-03-06T06:09:46.491Z,6.20
2023-03-06T06:10:46.467Z,5.80
2023-03-06T06:11:46.464Z,6.20
2023-03-06T06:12:46.476Z,5.80
2023-03-06T06:13:46.425Z,5.70
2023-03-06T06:14:46.424Z,6.00
2023-03-06T06:15:46.432Z,5.90
2023-03-06T06:16:46.494Z,5.90
2023-03-06T06:17:46.622Z,6.20
2023-03-06T06:18:46.371Z,6.50
2023-03-06T06:19:46.379Z,6.20
2023-03-06T06:20:46.375Z,6.00
2023-03-06T06:21:46.342Z,6.10
2023-03-06T06:22:46.341Z,6.10
2023-03-06T06:23:47.538Z,6.30
2023-03-06T06:24:46.315Z,5.80
2023-03-06T06:25:46.319Z,6.20
2023-03-06T06:26:46.310Z,7.00
2023-03-06T06:27:46.283Z,6.30
2023-03-06T06:28:46.271Z,6.30
2023-03-06T06:29:46.337Z,6.50
2023-03-06T06:30:46.248Z,6.80
2023-03-06T06:31:46.243Z,6.50
2023-03-06T06:32:46.217Z,6.50
2023-03-06T06:33:46.216Z,5.80
2023-03-06T06:34:46.235Z,6.40
2023-03-06T06:35:46.472Z,5.80
2023-03-06T06:36:46.176Z,6.20
2023-03-06T06:37:46.197Z,6.50
2023-03-06T06:38:46.166Z,6.10
2023-03-06T06:39:46.145Z,6.40
2023-03-06T06:41:04.299Z,6.10
2023-03-06T06:42:02.347Z,7.10
2023-03-06T06:42:47.130Z,6.10
2023-03-06T06:43:46.125Z,6.50
2023-03-06T06:44:46.149Z,6.30
2023-03-06T06:45:46.256Z,6.50
2023-03-06T06:47:47.121Z,6.60
2023-03-06T06:48:46.044Z,6.80
2023-03-06T06:49:46.037Z,6.20
2023-03-06T06:50:46.083Z,6.30
2023-03-06T06:51:46.033Z,5.90
2023-03-06T06:52:46.006Z,6.70
2023-03-06T06:53:46.018Z,6.20
2023-03-06T06:54:45.984Z,6.00
2023-03-06T06:55:45.968Z,6.20
2023-03-06T06:56:45.957Z,5.90
2023-03-06T06:57:45.962Z,6.40
2023-03-06T06:58:45.956Z,6.60
2023-03-06T06:59:45.973Z,6.10
2023-03-06T07:00:45.911Z,6.70
2023-03-06T07:01:45.954Z,5.80
2023-03-06T07:02:45.898Z,6.60
2023-03-06T07:03:45.941Z,6.70
2023-03-06T07:05:01.895Z,6.30
2023-03-06T07:05:46.888Z,7.00
2023-03-06T07:06:45.863Z,7.00
2023-03-06T07:07:45.834Z,6.80
2023-03-06T07:08:45.821Z,6.80
2023-03-06T07:09:45.802Z,7.00
2023-03-06T07:10:45.869Z,6.60
2023-03-06T07:11:45.854Z,6.70
2023-03-06T07:12:45.785Z,7.00
2023-03-06T07:13:45.766Z,6.70
2023-03-06T07:14:45.760Z,6.60
2023-03-06T07:15:45.769Z,6.90
2023-03-06T07:16:45.796Z,6.80
2023-03-06T07:17:45.832Z,6.50
2023-03-06T07:18:45.721Z,6.40
2023-03-06T07:19:45.695Z,6.90
2023-03-06T07:20:45.688Z,6.60
2023-03-06T07:21:45.721Z,6.60
2023-03-06T07:22:51.174Z,6.60
2023-03-06T07:23:46.665Z,6.70
2023-03-06T07:24:45.651Z,6.70
2023-03-06T07:25:45.630Z,6.60
2023-03-06T07:26:45.612Z,6.30
2023-03-06T07:27:52.705Z,6.60
2023-03-06T07:28:52.483Z,6.70
2023-03-06T07:29:46.597Z,6.70
2023-03-06T07:30:45.589Z,6.50
2023-03-06T07:31:45.550Z,6.60
2023-03-06T07:32:45.532Z,6.40
2023-03-06T07:33:45.559Z,6.70
2023-03-06T07:34:45.565Z,5.90
2023-03-06T07:35:45.544Z,6.20
2023-03-06T07:36:45.519Z,6.30
2023-03-06T07:37:45.494Z,6.80
2023-03-06T07:38:45.567Z,6.00
2023-03-06T07:39:45.465Z,5.90
2023-03-06T07:40:45.483Z,6.10
2023-03-06T07:41:45.446Z,7.20
2023-03-06T07:42:45.428Z,6.60
2023-03-06T07:43:45.426Z,6.60
2023-03-06T07:44:45.416Z,6.70
2023-03-06T07:45:45.385Z,6.80
2023-03-06T07:46:45.434Z,7.20
2023-03-06T07:47:45.386Z,6.50
2023-03-06T07:48:45.367Z,6.20
2023-03-06T07:49:45.356Z,6.60
2023-03-06T07:50:45.366Z,6.20
2023-03-06T07:51:45.361Z,6.40
2023-03-06T07:52:45.331Z,6.70
2023-03-06T07:53:45.325Z,6.80
2023-03-06T07:54:45.306Z,6.60
2023-03-06T07:55:45.268Z,6.60
2023-03-06T07:56:45.281Z,6.70
2023-03-06T07:57:45.305Z,7.10
2023-03-06T07:58:45.266Z,7.00
2023-03-06T07:59:45.267Z,5.80
2023-03-06T08:00:45.246Z,6.40
2023-03-06T08:01:45.232Z,7.10
2023-03-06T08:02:45.224Z,6.80
2023-03-06T08:03:45.297Z,6.50
2023-03-06T08:04:45.188Z,6.70
2023-03-06T08:05:45.233Z,6.40
2023-03-06T08:06:45.162Z,6.50
2023-03-06T08:07:45.174Z,6.60
2023-03-06T08:08:45.162Z,7.20
2023-03-06T08:09:45.136Z,6.60
2023-03-06T08:10:45.119Z,6.50
2023-03-06T08:11:45.090Z,6.70
2023-03-06T08:12:45.090Z,6.80
2023-03-06T08:13:45.076Z,6.40
2023-03-06T08:14:45.114Z,7.80
2023-03-06T08:15:45.057Z,7.20
2023-03-06T08:16:45.048Z,7.30
2023-03-06T08:17:45.058Z,7.20
2023-03-06T08:18:46.316Z,6.50
2023-03-06T08:19:45.019Z,6.80
2023-03-06T08:20:45.013Z,6.90
2023-03-06T08:21:44.981Z,6.60
2023-03-06T08:22:44.992Z,6.60
2023-03-06T08:23:44.962Z,6.60
2023-03-06T08:24:44.944Z,7.00
2023-03-06T08:25:44.991Z,7.40
2023-03-06T08:26:44.929Z,6.70
2023-03-06T08:27:44.906Z,6.70
2023-03-06T08:28:44.902Z,7.00
2023-03-06T08:29:44.887Z,6.70
2023-03-06T08:30:45.113Z,5.90
2023-03-06T08:31:44.951Z,6.60
2023-03-06T08:32:44.864Z,6.20
2023-03-06T08:33:44.898Z,6.30
2023-03-06T08:34:44.842Z,6.40
2023-03-06T08:35:44.909Z,6.60
2023-03-06T08:36:44.836Z,6.30
2023-03-06T08:37:44.834Z,5.70
2023-03-06T08:38:44.909Z,6.10
2023-03-06T08:39:44.781Z,6.30
2023-03-06T08:40:44.776Z,5.80
2023-03-06T08:41:44.807Z,6.20
2023-03-06T08:42:44.769Z,6.10
2023-03-06T08:43:44.744Z,5.70
2023-03-06T08:44:44.710Z,5.70
2023-03-06T08:45:44.722Z,6.40
2023-03-06T08:46:44.718Z,8.20
2023-03-06T08:47:44.701Z,9.70
2023-03-06T08:48:44.711Z,6.80
2023-03-06T08:49:44.664Z,6.60
2023-03-06T08:50:44.650Z,5.40
2023-03-06T08:51:44.779Z,6.50
2023-03-06T08:52:44.651Z,6.40
2023-03-06T08:53:44.767Z,6.30
2023-03-06T08:54:44.917Z,6.20
2023-03-06T08:55:44.591Z,5.70
2023-03-06T08:56:44.580Z,9.60
2023-03-06T08:57:44.596Z,5.70
2023-03-06T08:58:44.579Z,5.60
2023-03-06T08:59:44.588Z,6.40
2023-03-06T09:00:44.737Z,6.00
2023-03-06T09:01:44.612Z,6.40
2023-03-06T09:02:44.586Z,5.80
2023-03-06T09:03:44.573Z,6.00
2023-03-06T09:04:44.527Z,5.90
2023-03-06T09:05:44.503Z,6.10
2023-03-06T09:06:44.467Z,7.90
2023-03-06T09:07:44.454Z,6.20
2023-03-06T09:08:44.537Z,6.70
2023-03-06T09:09:44.417Z,6.10
2023-03-06T09:10:44.514Z,6.70
2023-03-06T09:11:44.475Z,6.80
2023-03-06T09:12:50.530Z,9.50
2023-03-06T09:13:45.369Z,6.20
2023-03-06T09:14:44.376Z,6.80
2023-03-06T09:15:44.355Z,6.70
2023-03-06T09:16:44.441Z,7.10
2023-03-06T09:17:44.389Z,6.30
2023-03-06T09:18:44.333Z,6.50
2023-03-06T09:19:44.315Z,6.80
2023-03-06T09:20:44.326Z,7.80
2023-03-06T09:21:44.286Z,6.30
2023-03-06T09:22:44.285Z,6.40
2023-03-06T09:23:44.317Z,7.40
2023-03-06T09:24:44.244Z,6.40
2023-03-06T09:25:44.259Z,7.10
2023-03-06T09:26:46.725Z,6.90
2023-03-06T09:27:44.267Z,6.20
2023-03-06T09:28:44.230Z,7.20
2023-03-06T09:29:44.205Z,6.50
2023-03-06T09:30:44.229Z,6.90
2023-03-06T09:31:44.184Z,7.00
2023-03-06T09:32:44.235Z,6.90
2023-03-06T09:33:44.187Z,7.00
2023-03-06T09:34:44.173Z,6.60
2023-03-06T09:35:44.148Z,6.80
2023-03-06T09:36:56.157Z,7.20
2023-03-06T09:37:45.129Z,6.20
2023-03-06T09:38:44.101Z,6.20
2023-03-06T09:39:44.078Z,6.60
2023-03-06T09:40:44.124Z,6.50
2023-03-06T09:41:44.108Z,6.50
2023-03-06T09:42:44.055Z,6.90
2023-03-06T09:43:44.042Z,6.50
2023-03-06T09:44:44.104Z,5.90
2023-03-06T09:45:44.065Z,6.70
2023-03-06T09:46:44.095Z,7.00
2023-03-06T09:47:43.988Z,6.40
2023-03-06T09:48:43.986Z,7.50
2023-03-06T09:49:43.986Z,6.90
2023-03-06T09:50:43.980Z,5.90
2023-03-06T09:51:44.210Z,6.40
2023-03-06T09:52:43.960Z,6.20
2023-03-06T09:53:43.933Z,6.30
2023-03-06T09:54:43.906Z,6.30
2023-03-06T09:55:43.897Z,6.20
2023-03-06T09:56:43.887Z,6.00
2023-03-06T09:57:44.006Z,6.40
2023-03-06T09:58:43.866Z,5.70
2023-03-06T09:59:43.879Z,6.30
2023-03-06T10:00:43.854Z,5.60
2023-03-06T10:01:43.850Z,6.60
2023-03-06T10:02:43.986Z,6.40
2023-03-06T10:03:43.845Z,6.70
2023-03-06T10:04:43.839Z,6.00
2023-03-06T10:05:43.786Z,6.10
2023-03-06T10:06:43.776Z,6.00
2023-03-06T10:07:43.778Z,6.30
2023-03-06T10:08:43.779Z,6.50
2023-03-06T10:09:43.756Z,6.60
2023-03-06T10:10:43.731Z,6.00
2023-03-06T10:11:43.743Z,6.70
2023-03-06T10:12:43.707Z,6.30
2023-03-06T10:13:43.711Z,6.20
2023-03-06T10:14:43.739Z,6.30
2023-03-06T10:15:43.696Z,5.90
2023-03-06T10:16:43.669Z,6.30
2023-03-06T10:17:44.378Z,6.30
2023-03-06T10:18:43.646Z,5.50
2023-03-06T10:19:43.718Z,6.10
2023-03-06T10:20:43.776Z,5.30
2023-03-06T10:21:43.633Z,6.20
2023-03-06T10:22:46.086Z,6.00
2023-03-06T10:23:43.610Z,5.70
2023-03-06T10:24:43.666Z,5.70
2023-03-06T10:25:43.592Z,5.40
2023-03-06T10:26:43.687Z,5.40
2023-03-06T10:27:43.591Z,5.90
2023-03-06T10:28:43.538Z,6.00
2023-03-06T10:29:47.637Z,6.00
2023-03-06T10:30:44.616Z,6.30
2023-03-06T10:31:43.572Z,5.60
2023-03-06T10:32:48.690Z,5.40
2023-03-06T10:33:44.472Z,5.80
2023-03-06T10:34:43.470Z,5.80
2023-03-06T10:35:43.492Z,5.80
2023-03-06T10:36:43.436Z,5.10
2023-03-06T10:37:43.471Z,5.70
2023-03-06T10:38:43.414Z,5.60
2023-03-06T10:39:43.426Z,5.30
2023-03-06T10:40:43.387Z,5.50
2023-03-06T10:41:44.720Z,5.00
2023-03-06T10:42:43.485Z,5.20
2023-03-06T10:43:43.378Z,5.70
2023-03-06T10:44:43.358Z,5.50
2023-03-06T10:45:48.963Z,6.40
2023-03-06T10:46:44.469Z,5.40
2023-03-06T10:47:43.342Z,5.00
2023-03-06T10:48:43.360Z,5.40
2023-03-06T10:49:43.309Z,5.70
2023-03-06T10:50:43.287Z,4.90
2023-03-06T10:51:43.360Z,5.40
2023-03-06T10:52:43.267Z,5.10
2023-03-06T10:53:43.264Z,5.50
2023-03-06T10:54:43.280Z,5.50
2023-03-06T10:55:43.227Z,5.80
2023-03-06T10:56:43.293Z,5.60
2023-03-06T10:57:43.207Z,5.80
2023-03-06T10:58:43.193Z,5.30
2023-03-06T10:59:43.207Z,5.20
2023-03-06T11:00:43.221Z,4.90
2023-03-06T11:01:43.249Z,5.00
2023-03-06T11:02:43.147Z,4.50
2023-03-06T11:03:43.299Z,4.70
2023-03-06T11:04:43.157Z,5.10
2023-03-06T11:05:43.166Z,4.70
2023-03-06T11:06:43.110Z,4.50
2023-03-06T11:07:43.123Z,5.20
2023-03-06T11:08:43.077Z,4.70
2023-03-06T11:09:43.060Z,5.30
2023-03-06T11:10:43.058Z,4.90
2023-03-06T11:11:43.115Z,5.10
2023-03-06T11:12:43.029Z,5.40
2023-03-06T11:13:43.123Z,5.70
2023-03-06T11:14:43.044Z,5.00
2023-03-06T11:15:43.049Z,6.90
2023-03-06T11:16:42.987Z,5.80
2023-03-06T11:17:43.031Z,5.60
2023-03-06T11:18:42.974Z,5.10
2023-03-06T11:19:42.977Z,5.40
2023-03-06T11:20:51.416Z,6.10
2023-03-06T11:21:43.945Z,6.00
2023-03-06T11:22:42.920Z,5.60
2023-03-06T11:23:42.946Z,6.30
2023-03-06T11:24:42.932Z,5.90
2023-03-06T11:25:42.892Z,6.20
2023-03-06T11:26:42.908Z,6.60
2023-03-06T11:27:42.903Z,6.10
2023-03-06T11:28:42.878Z,6.30
2023-03-06T11:29:42.873Z,5.90
2023-03-06T11:30:42.830Z,5.50
2023-03-06T11:31:42.842Z,6.10
2023-03-06T11:32:42.827Z,6.90
2023-03-06T11:33:42.804Z,7.10
2023-03-06T11:34:42.827Z,6.20
2023-03-06T11:35:42.837Z,6.60
2023-03-06T11:36:42.767Z,6.70
2023-03-06T11:37:42.764Z,7.00
2023-03-06T11:38:42.742Z,6.80
2023-03-06T11:39:42.736Z,7.00
2023-03-06T11:40:42.761Z,6.40
2023-03-06T11:41:42.724Z,5.90
2023-03-06T11:42:42.686Z,5.10
2023-03-06T11:43:42.681Z,5.70
2023-03-06T11:44:42.665Z,5.30
2023-03-06T11:45:42.868Z,5.00
2023-03-06T11:46:42.690Z,5.60
2023-03-06T11:47:42.645Z,5.90
2023-03-06T11:48:42.620Z,6.20
2023-03-06T11:49:42.622Z,5.80
2023-03-06T11:50:42.639Z,5.20
2023-03-06T11:51:42.634Z,5.20
2023-03-06T11:52:42.577Z,6.20
2023-03-06T11:53:42.562Z,6.30
2023-03-06T11:54:42.553Z,6.10
2023-03-06T11:55:42.555Z,6.30
2023-03-06T11:56:42.529Z,6.00
2023-03-06T11:57:42.587Z,6.30
2023-03-06T11:58:42.518Z,6.20
2023-03-06T11:59:42.524Z,6.50
2023-03-06T12:00:42.521Z,5.90
2023-03-06T12:01:42.518Z,5.90
2023-03-06T12:02:42.508Z,6.30
2023-03-06T12:03:42.444Z,6.30
2023-03-06T12:04:42.466Z,6.00
2023-03-06T12:05:42.472Z,5.80
2023-03-06T12:06:42.449Z,5.60
2023-03-06T12:07:42.410Z,6.20
2023-03-06T12:08:42.448Z,5.80
2023-03-06T12:09:42.425Z,5.90
2023-03-06T12:10:42.375Z,6.20
2023-03-06T12:11:42.385Z,6.00
2023-03-06T12:12:42.358Z,6.60
2023-03-06T12:13:42.365Z,5.90
2023-03-06T12:14:42.345Z,6.20
2023-03-06T12:15:42.323Z,6.00
2023-03-06T12:16:42.350Z,6.00
2023-03-06T12:17:42.287Z,5.60
2023-03-06T12:18:42.300Z,5.30
2023-03-06T12:19:42.297Z,5.20
2023-03-06T12:20:42.267Z,5.30
2023-03-06T12:21:42.270Z,5.00
2023-03-06T12:22:43.175Z,5.30
2023-03-06T12:23:42.227Z,5.00
2023-03-06T12:24:42.231Z,5.20
2023-03-06T12:25:42.278Z,4.90
2023-03-06T12:26:42.198Z,5.30
2023-03-06T12:27:42.181Z,5.60
2023-03-06T12:28:42.196Z,5.70
2023-03-06T12:29:42.167Z,5.50
2023-03-06T12:30:42.166Z,5.50
2023-03-06T12:31:42.171Z,5.10
2023-03-06T12:32:42.163Z,5.10
2023-03-06T12:33:42.120Z,5.30
2023-03-06T12:34:42.107Z,5.90
2023-03-06T12:35:42.201Z,5.50
2023-03-06T12:36:42.098Z,5.60
2023-03-06T12:37:45.839Z,5.40
2023-03-06T12:38:42.055Z,5.40
2023-03-06T12:39:42.059Z,5.70
2023-03-06T12:40:42.046Z,5.30
2023-03-06T12:41:42.048Z,5.30
2023-03-06T12:42:42.154Z,5.10
2023-03-06T12:43:42.089Z,5.50
2023-03-06T12:44:42.046Z,4.60
2023-03-06T12:45:42.016Z,5.30
2023-03-06T12:46:41.989Z,5.10
2023-03-06T12:47:42.012Z,5.20
2023-03-06T12:48:42.007Z,5.20
2023-03-06T12:49:41.978Z,5.10
2023-03-06T12:50:41.930Z,5.00
2023-03-06T12:51:42.039Z,4.60
2023-03-06T12:52:41.924Z,4.70
2023-03-06T12:53:41.914Z,5.40
2023-03-06T12:54:42.118Z,4.50
2023-03-06T12:55:41.949Z,5.20
2023-03-06T12:56:41.880Z,5.10
2023-03-06T12:57:41.917Z,5.40
2023-03-06T12:58:41.846Z,5.40
2023-03-06T12:59:41.850Z,4.90
2023-03-06T13:00:42.091Z,5.10
2023-03-06T13:01:41.846Z,5.30
2023-03-06T13:02:41.910Z,4.90
2023-03-06T13:03:41.805Z,5.40
2023-03-06T13:04:41.809Z,5.10
2023-03-06T13:05:41.776Z,5.40
2023-03-06T13:06:49.859Z,4.80
2023-03-06T13:07:42.737Z,5.20
2023-03-06T13:08:43.923Z,5.30
2023-03-06T13:09:41.769Z,4.40
2023-03-06T13:10:41.722Z,4.70
2023-03-06T13:11:41.752Z,4.70
2023-03-06T13:12:41.738Z,4.60
2023-03-06T13:13:41.680Z,4.60
2023-03-06T13:14:48.655Z,4.90
2023-03-06T13:15:42.751Z,5.00
2023-03-06T13:16:41.722Z,4.40
2023-03-06T13:17:41.667Z,4.90
2023-03-06T13:18:41.774Z,4.30
2023-03-06T13:19:41.622Z,4.80